sensor_id;sensor_type;location;lat;lon;timestamp;P1;durP1;ratioP1;P2;durP2;ratioP2
12878;SDS011;20617;49.476;10.986;2023-07-31T00:01:27;3.55;;;1.33;;
12878;SDS011;20617;49.476;10.986;2023-07-31T00:03:34;5.47;;;1.40;;
12878;SDS011;20617;49.476;10.986;2023-07-31T00:07:43;3.00;;;1.67;;
12878;SDS011;20617;49.476;10.986;2023-07-31T00:09:51;3.75;;;1.73;;
12878;SDS011;20617;49.476;10.986;2023-07-31T00:11:58;3.70;;;1.88;;
12878;SDS011;20617;49.476;10.986;2023-07-31T00:14:05;4.32;;;1.58;;
12878;SDS011;20617;49.476;10.986;2023-07-31T00:16:12;4.38;;;1.50;;
12878;SDS011;20617;49.476;10.986;2023-07-31T00:18:15;5.35;;;1.55;;
12878;SDS011;20617;49.476;10.986;2023-07-31T00:20:23;3.25;;;1.35;;
12878;SDS011;20617;49.476;10.986;2023-07-31T00:22:28;3.85;;;1.67;;
12878;SDS011;20617;49.476;10.986;2023-07-31T00:24:33;6.63;;;1.48;;
12878;SDS011;20617;49.476;10.986;2023-07-31T00:26:43;3.47;;;1.42;;
12878;SDS011;20617;49.476;10.986;2023-07-31T00:28:49;3.10;;;1.40;;
12878;SDS011;20617;49.476;10.986;2023-07-31T00:30:56;4.80;;;1.48;;
12878;SDS011;20617;49.476;10.986;2023-07-31T00:33:01;4.70;;;1.55;;
12878;SDS011;20617;49.476;10.986;2023-07-31T00:35:10;5.95;;;1.85;;
12878;SDS011;20617;49.476;10.986;2023-07-31T00:37:17;3.20;;;1.50;;
12878;SDS011;20617;49.476;10.986;2023-07-31T00:39:22;3.70;;;1.30;;
12878;SDS011;20617;49.476;10.986;2023-07-31T00:41:25;3.22;;;1.23;;
12878;SDS011;20617;49.476;10.986;2023-07-31T00:43:34;6.82;;;1.77;;
12878;SDS011;20617;49.476;10.986;2023-07-31T00:45:42;3.40;;;1.50;;
12878;SDS011;20617;49.476;10.986;2023-07-31T00:47:48;2.08;;;1.17;;
12878;SDS011;20617;49.476;10.986;2023-07-31T00:49:54;3.95;;;1.17;;
12878;SDS011;20617;49.476;10.986;2023-07-31T00:52:01;5.70;;;1.70;;
12878;SDS011;20617;49.476;10.986;2023-07-31T00:54:22;3.75;;;1.45;;
12878;SDS011;20617;49.476;10.986;2023-07-31T00:56:27;4.80;;;1.40;;
12878;SDS011;20617;49.476;10.986;2023-07-31T00:58:37;7.18;;;1.92;;
12878;SDS011;20617;49.476;10.986;2023-07-31T01:00:43;4.18;;;1.48;;
12878;SDS011;20617;49.476;10.986;2023-07-31T01:02:54;5.25;;;1.75;;
12878;SDS011;20617;49.476;10.986;2023-07-31T01:05:00;3.25;;;1.40;;
12878;SDS011;20617;49.476;10.986;2023-07-31T01:07:07;3.05;;;1.30;;
12878;SDS011;20617;49.476;10.986;2023-07-31T01:09:18;4.82;;;1.40;;
12878;SDS011;20617;49.476;10.986;2023-07-31T01:11:31;2.95;;;1.40;;
12878;SDS011;20617;49.476;10.986;2023-07-31T01:13:40;3.08;;;1.75;;
12878;SDS011;20617;49.476;10.986;2023-07-31T01:15:49;2.50;;;1.30;;
12878;SDS011;20617;49.476;10.986;2023-07-31T01:17:55;3.67;;;1.38;;
12878;SDS011;20617;49.476;10.986;2023-07-31T01:22:14;7.43;;;1.58;;
12878;SDS011;20617;49.476;10.986;2023-07-31T01:24:35;5.47;;;1.60;;
12878;SDS011;20617;49.476;10.986;2023-07-31T01:26:56;8.98;;;1.67;;
12878;SDS011;20617;49.476;10.986;2023-07-31T01:29:07;3.25;;;1.55;;
12878;SDS011;20617;49.476;10.986;2023-07-31T01:31:23;3.63;;;1.75;;
12878;SDS011;20617;49.476;10.986;2023-07-31T01:33:29;3.08;;;1.58;;
12878;SDS011;20617;49.476;10.986;2023-07-31T01:35:34;4.60;;;1.52;;
12878;SDS011;20617;49.476;10.986;2023-07-31T01:37:41;3.40;;;1.27;;
12878;SDS011;20617;49.476;10.986;2023-07-31T01:39:46;4.85;;;1.70;;
12878;SDS011;20617;49.476;10.986;2023-07-31T01:41:51;3.65;;;1.45;;
12878;SDS011;20617;49.476;10.986;2023-07-31T01:43:57;5.10;;;1.52;;
12878;SDS011;20617;49.476;10.986;2023-07-31T01:46:02;2.13;;;1.30;;
12878;SDS011;20617;49.476;10.986;2023-07-31T01:48:12;4.68;;;1.42;;
12878;SDS011;20617;49.476;10.986;2023-07-31T01:50:18;5.20;;;1.80;;
12878;SDS011;20617;49.476;10.986;2023-07-31T01:52:26;2.22;;;1.30;;
12878;SDS011;20617;49.476;10.986;2023-07-31T01:54:31;4.60;;;1.58;;
12878;SDS011;20617;49.476;10.986;2023-07-31T01:56:39;3.85;;;1.45;;
12878;SDS011;20617;49.476;10.986;2023-07-31T01:58:44;3.45;;;1.40;;
12878;SDS011;20617;49.476;10.986;2023-07-31T02:00:52;3.78;;;1.23;;
12878;SDS011;20617;49.476;10.986;2023-07-31T02:02:57;2.70;;;1.13;;
12878;SDS011;20617;49.476;10.986;2023-07-31T02:05:03;2.90;;;1.33;;
12878;SDS011;20617;49.476;10.986;2023-07-31T02:07:09;2.25;;;1.23;;
12878;SDS011;20617;49.476;10.986;2023-07-31T02:09:14;4.28;;;1.48;;
12878;SDS011;20617;49.476;10.986;2023-07-31T02:11:22;4.90;;;1.60;;
12878;SDS011;20617;49.476;10.986;2023-07-31T02:15:31;3.30;;;1.38;;
12878;SDS011;20617;49.476;10.986;2023-07-31T02:17:39;2.90;;;1.50;;
12878;SDS011;20617;49.476;10.986;2023-07-31T02:19:44;3.75;;;1.42;;
12878;SDS011;20617;49.476;10.986;2023-07-31T02:21:49;3.53;;;1.52;;
12878;SDS011;20617;49.476;10.986;2023-07-31T02:23:54;3.58;;;1.30;;
12878;SDS011;20617;49.476;10.986;2023-07-31T02:25:57;3.03;;;1.33;;
12878;SDS011;20617;49.476;10.986;2023-07-31T02:28:02;4.57;;;1.67;;
12878;SDS011;20617;49.476;10.986;2023-07-31T02:30:07;4.55;;;1.70;;
12878;SDS011;20617;49.476;10.986;2023-07-31T02:32:13;4.47;;;1.40;;
12878;SDS011;20617;49.476;10.986;2023-07-31T02:34:22;2.92;;;1.10;;
12878;SDS011;20617;49.476;10.986;2023-07-31T02:36:27;3.35;;;1.38;;
12878;SDS011;20617;49.476;10.986;2023-07-31T02:40:34;4.78;;;1.35;;
12878;SDS011;20617;49.476;10.986;2023-07-31T02:42:39;2.75;;;1.15;;
12878;SDS011;20617;49.476;10.986;2023-07-31T02:44:46;2.10;;;1.13;;
12878;SDS011;20617;49.476;10.986;2023-07-31T02:46:52;3.15;;;1.42;;
12878;SDS011;20617;49.476;10.986;2023-07-31T02:48:58;2.47;;;1.20;;
12878;SDS011;20617;49.476;10.986;2023-07-31T02:51:21;2.90;;;1.27;;
12878;SDS011;20617;49.476;10.986;2023-07-31T02:53:29;5.68;;;1.55;;
12878;SDS011;20617;49.476;10.986;2023-07-31T02:55:34;2.85;;;1.38;;
12878;SDS011;20617;49.476;10.986;2023-07-31T02:57:40;3.95;;;1.70;;
12878;SDS011;20617;49.476;10.986;2023-07-31T02:59:45;4.22;;;1.60;;
12878;SDS011;20617;49.476;10.986;2023-07-31T03:01:52;3.20;;;1.45;;
12878;SDS011;20617;49.476;10.986;2023-07-31T03:06:02;3.63;;;1.30;;
12878;SDS011;20617;49.476;10.986;2023-07-31T03:08:13;3.65;;;1.40;;
12878;SDS011;20617;49.476;10.986;2023-07-31T03:10:18;2.60;;;1.40;;
12878;SDS011;20617;49.476;10.986;2023-07-31T03:12:23;3.22;;;1.50;;
12878;SDS011;20617;49.476;10.986;2023-07-31T03:14:28;3.17;;;1.40;;
12878;SDS011;20617;49.476;10.986;2023-07-31T03:16:31;3.90;;;1.60;;
12878;SDS011;20617;49.476;10.986;2023-07-31T03:20:42;2.90;;;1.50;;
12878;SDS011;20617;49.476;10.986;2023-07-31T03:22:51;3.50;;;1.60;;
12878;SDS011;20617;49.476;10.986;2023-07-31T03:24:59;6.70;;;1.80;;
12878;SDS011;20617;49.476;10.986;2023-07-31T03:27:06;4.25;;;1.60;;
12878;SDS011;20617;49.476;10.986;2023-07-31T03:29:12;2.47;;;1.30;;
12878;SDS011;20617;49.476;10.986;2023-07-31T03:31:18;4.93;;;1.40;;
12878;SDS011;20617;49.476;10.986;2023-07-31T03:35:28;3.92;;;1.48;;
12878;SDS011;20617;49.476;10.986;2023-07-31T03:37:33;3.00;;;1.42;;
12878;SDS011;20617;49.476;10.986;2023-07-31T03:41:46;9.75;;;2.75;;
12878;SDS011;20617;49.476;10.986;2023-07-31T03:43:52;2.67;;;1.42;;
12878;SDS011;20617;49.476;10.986;2023-07-31T03:45:57;3.60;;;1.40;;
12878;SDS011;20617;49.476;10.986;2023-07-31T03:50:11;9.77;;;1.60;;
12878;SDS011;20617;49.476;10.986;2023-07-31T03:52:17;2.05;;;1.10;;
12878;SDS011;20617;49.476;10.986;2023-07-31T03:54:24;5.95;;;1.48;;
12878;SDS011;20617;49.476;10.986;2023-07-31T03:56:27;2.25;;;1.20;;
12878;SDS011;20617;49.476;10.986;2023-07-31T03:58:38;4.22;;;1.30;;
12878;SDS011;20617;49.476;10.986;2023-07-31T04:00:43;3.45;;;1.40;;
12878;SDS011;20617;49.476;10.986;2023-07-31T04:02:50;3.42;;;1.70;;
12878;SDS011;20617;49.476;10.986;2023-07-31T04:07:00;2.47;;;1.33;;
12878;SDS011;20617;49.476;10.986;2023-07-31T04:11:08;5.13;;;1.40;;
12878;SDS011;20617;49.476;10.986;2023-07-31T04:15:20;3.75;;;1.40;;
12878;SDS011;20617;49.476;10.986;2023-07-31T04:17:25;2.47;;;1.40;;
12878;SDS011;20617;49.476;10.986;2023-07-31T04:19:31;3.85;;;1.58;;
12878;SDS011;20617;49.476;10.986;2023-07-31T04:21:41;2.88;;;1.60;;
12878;SDS011;20617;49.476;10.986;2023-07-31T04:23:48;2.92;;;1.27;;
12878;SDS011;20617;49.476;10.986;2023-07-31T04:27:58;2.78;;;1.27;;
12878;SDS011;20617;49.476;10.986;2023-07-31T04:30:03;3.90;;;1.63;;
12878;SDS011;20617;49.476;10.986;2023-07-31T04:32:11;3.08;;;1.55;;
12878;SDS011;20617;49.476;10.986;2023-07-31T04:34:18;3.45;;;1.52;;
12878;SDS011;20617;49.476;10.986;2023-07-31T04:36:23;3.90;;;1.88;;
12878;SDS011;20617;49.476;10.986;2023-07-31T04:38:28;5.55;;;2.10;;
12878;SDS011;20617;49.476;10.986;2023-07-31T04:40:33;3.45;;;1.60;;
12878;SDS011;20617;49.476;10.986;2023-07-31T04:42:36;4.65;;;1.80;;
12878;SDS011;20617;49.476;10.986;2023-07-31T04:44:41;5.13;;;2.22;;
12878;SDS011;20617;49.476;10.986;2023-07-31T04:46:46;2.60;;;1.30;;
12878;SDS011;20617;49.476;10.986;2023-07-31T04:48:56;2.35;;;1.40;;
12878;SDS011;20617;49.476;10.986;2023-07-31T04:51:01;3.92;;;1.65;;
12878;SDS011;20617;49.476;10.986;2023-07-31T04:55:11;2.78;;;1.30;;
12878;SDS011;20617;49.476;10.986;2023-07-31T04:57:16;3.47;;;2.05;;
12878;SDS011;20617;49.476;10.986;2023-07-31T04:59:23;2.85;;;1.38;;
12878;SDS011;20617;49.476;10.986;2023-07-31T05:01:28;4.30;;;1.70;;
12878;SDS011;20617;49.476;10.986;2023-07-31T05:03:34;2.35;;;1.35;;
12878;SDS011;20617;49.476;10.986;2023-07-31T05:07:47;4.60;;;1.92;;
12878;SDS011;20617;49.476;10.986;2023-07-31T05:09:54;6.72;;;1.80;;
12878;SDS011;20617;49.476;10.986;2023-07-31T05:12:00;4.45;;;1.48;;
12878;SDS011;20617;49.476;10.986;2023-07-31T05:14:05;3.75;;;1.67;;
12878;SDS011;20617;49.476;10.986;2023-07-31T05:18:16;3.90;;;1.63;;
12878;SDS011;20617;49.476;10.986;2023-07-31T05:20:21;5.60;;;1.60;;
12878;SDS011;20617;49.476;10.986;2023-07-31T05:22:29;5.65;;;1.70;;
12878;SDS011;20617;49.476;10.986;2023-07-31T05:24:34;2.42;;;1.63;;
12878;SDS011;20617;49.476;10.986;2023-07-31T05:26:37;4.22;;;1.70;;
12878;SDS011;20617;49.476;10.986;2023-07-31T05:28:42;4.20;;;1.40;;
12878;SDS011;20617;49.476;10.986;2023-07-31T05:32:52;4.80;;;1.60;;
12878;SDS011;20617;49.476;10.986;2023-07-31T05:37:03;3.95;;;1.67;;
12878;SDS011;20617;49.476;10.986;2023-07-31T05:39:11;2.63;;;1.35;;
12878;SDS011;20617;49.476;10.986;2023-07-31T05:41:20;3.03;;;1.40;;
12878;SDS011;20617;49.476;10.986;2023-07-31T05:43:25;3.25;;;1.67;;
12878;SDS011;20617;49.476;10.986;2023-07-31T05:45:30;3.13;;;1.63;;
12878;SDS011;20617;49.476;10.986;2023-07-31T05:49:40;3.50;;;1.67;;
12878;SDS011;20617;49.476;10.986;2023-07-31T05:51:47;4.28;;;1.90;;
12878;SDS011;20617;49.476;10.986;2023-07-31T05:53:54;4.63;;;2.00;;
12878;SDS011;20617;49.476;10.986;2023-07-31T05:56:02;2.72;;;1.65;;
12878;SDS011;20617;49.476;10.986;2023-07-31T05:58:08;6.22;;;2.05;;
12878;SDS011;20617;49.476;10.986;2023-07-31T06:00:13;6.82;;;2.22;;
12878;SDS011;20617;49.476;10.986;2023-07-31T06:02:21;4.13;;;1.90;;
12878;SDS011;20617;49.476;10.986;2023-07-31T06:04:26;3.50;;;1.63;;
12878;SDS011;20617;49.476;10.986;2023-07-31T06:06:32;2.38;;;1.50;;
12878;SDS011;20617;49.476;10.986;2023-07-31T06:08:40;3.90;;;1.45;;
12878;SDS011;20617;49.476;10.986;2023-07-31T06:10:48;3.78;;;1.70;;
12878;SDS011;20617;49.476;10.986;2023-07-31T06:12:56;4.80;;;1.73;;
12878;SDS011;20617;49.476;10.986;2023-07-31T06:15:04;4.78;;;1.70;;
12878;SDS011;20617;49.476;10.986;2023-07-31T06:17:10;3.33;;;1.50;;
12878;SDS011;20617;49.476;10.986;2023-07-31T06:21:20;4.53;;;1.85;;
12878;SDS011;20617;49.476;10.986;2023-07-31T06:25:29;3.65;;;1.42;;
12878;SDS011;20617;49.476;10.986;2023-07-31T06:29:41;3.90;;;1.38;;
12878;SDS011;20617;49.476;10.986;2023-07-31T06:31:46;3.45;;;1.45;;
12878;SDS011;20617;49.476;10.986;2023-07-31T06:33:52;3.75;;;1.98;;
12878;SDS011;20617;49.476;10.986;2023-07-31T06:35:57;6.10;;;2.42;;
12878;SDS011;20617;49.476;10.986;2023-07-31T06:40:09;4.57;;;1.70;;
12878;SDS011;20617;49.476;10.986;2023-07-31T06:42:15;3.55;;;1.70;;
12878;SDS011;20617;49.476;10.986;2023-07-31T06:44:20;3.80;;;1.80;;
12878;SDS011;20617;49.476;10.986;2023-07-31T06:46:28;4.63;;;2.03;;
12878;SDS011;20617;49.476;10.986;2023-07-31T06:48:33;5.40;;;1.73;;
12878;SDS011;20617;49.476;10.986;2023-07-31T06:50:38;2.55;;;1.60;;
12878;SDS011;20617;49.476;10.986;2023-07-31T06:52:43;3.75;;;1.65;;
12878;SDS011;20617;49.476;10.986;2023-07-31T06:54:59;3.17;;;1.73;;
12878;SDS011;20617;49.476;10.986;2023-07-31T06:57:06;6.82;;;1.70;;
12878;SDS011;20617;49.476;10.986;2023-07-31T06:59:13;4.63;;;1.70;;
12878;SDS011;20617;49.476;10.986;2023-07-31T07:01:18;3.75;;;1.60;;
12878;SDS011;20617;49.476;10.986;2023-07-31T07:03:27;4.47;;;1.90;;
12878;SDS011;20617;49.476;10.986;2023-07-31T07:05:32;7.53;;;2.13;;
12878;SDS011;20617;49.476;10.986;2023-07-31T07:07:37;5.85;;;1.77;;
12878;SDS011;20617;49.476;10.986;2023-07-31T07:09:42;4.30;;;2.03;;
12878;SDS011;20617;49.476;10.986;2023-07-31T07:13:52;4.18;;;1.70;;
12878;SDS011;20617;49.476;10.986;2023-07-31T07:15:57;4.13;;;1.88;;
12878;SDS011;20617;49.476;10.986;2023-07-31T07:20:10;5.63;;;1.80;;
12878;SDS011;20617;49.476;10.986;2023-07-31T07:22:14;8.43;;;1.95;;
12878;SDS011;20617;49.476;10.986;2023-07-31T07:24:27;3.80;;;1.88;;
12878;SDS011;20617;49.476;10.986;2023-07-31T07:28:38;4.22;;;2.50;;
12878;SDS011;20617;49.476;10.986;2023-07-31T07:30:50;7.25;;;2.90;;
12878;SDS011;20617;49.476;10.986;2023-07-31T07:32:56;7.32;;;2.65;;
12878;SDS011;20617;49.476;10.986;2023-07-31T07:37:08;3.78;;;1.95;;
12878;SDS011;20617;49.476;10.986;2023-07-31T07:39:16;5.32;;;2.05;;
12878;SDS011;20617;49.476;10.986;2023-07-31T07:41:22;4.15;;;2.22;;
12878;SDS011;20617;49.476;10.986;2023-07-31T07:43:27;5.57;;;1.90;;
12878;SDS011;20617;49.476;10.986;2023-07-31T07:45:33;6.90;;;2.42;;
12878;SDS011;20617;49.476;10.986;2023-07-31T07:47:38;4.07;;;2.30;;
12878;SDS011;20617;49.476;10.986;2023-07-31T07:49:45;5.25;;;2.17;;
12878;SDS011;20617;49.476;10.986;2023-07-31T07:51:54;7.40;;;2.90;;
12878;SDS011;20617;49.476;10.986;2023-07-31T07:54:02;4.22;;;2.25;;
12878;SDS011;20617;49.476;10.986;2023-07-31T07:56:07;4.03;;;1.88;;
12878;SDS011;20617;49.476;10.986;2023-07-31T07:58:12;4.22;;;2.10;;
12878;SDS011;20617;49.476;10.986;2023-07-31T08:00:17;5.03;;;2.30;;
12878;SDS011;20617;49.476;10.986;2023-07-31T08:02:22;4.35;;;2.05;;
12878;SDS011;20617;49.476;10.986;2023-07-31T08:04:30;5.03;;;2.33;;
12878;SDS011;20617;49.476;10.986;2023-07-31T08:08:40;5.60;;;2.20;;
12878;SDS011;20617;49.476;10.986;2023-07-31T08:12:52;6.65;;;2.50;;
12878;SDS011;20617;49.476;10.986;2023-07-31T08:14:57;5.55;;;2.63;;
12878;SDS011;20617;49.476;10.986;2023-07-31T08:17:05;4.18;;;1.80;;
12878;SDS011;20617;49.476;10.986;2023-07-31T08:19:11;7.03;;;2.75;;
12878;SDS011;20617;49.476;10.986;2023-07-31T08:21:16;6.18;;;2.10;;
12878;SDS011;20617;49.476;10.986;2023-07-31T08:23:21;5.80;;;2.20;;
12878;SDS011;20617;49.476;10.986;2023-07-31T08:25:26;6.00;;;1.77;;
12878;SDS011;20617;49.476;10.986;2023-07-31T08:27:36;6.07;;;3.00;;
12878;SDS011;20617;49.476;10.986;2023-07-31T08:29:41;6.53;;;2.65;;
12878;SDS011;20617;49.476;10.986;2023-07-31T08:31:46;6.85;;;2.50;;
12878;SDS011;20617;49.476;10.986;2023-07-31T08:33:51;4.55;;;2.42;;
12878;SDS011;20617;49.476;10.986;2023-07-31T08:35:56;5.80;;;2.08;;
12878;SDS011;20617;49.476;10.986;2023-07-31T08:38:01;4.93;;;2.28;;
12878;SDS011;20617;49.476;10.986;2023-07-31T08:40:06;3.58;;;2.00;;
12878;SDS011;20617;49.476;10.986;2023-07-31T08:42:13;6.22;;;2.33;;
12878;SDS011;20617;49.476;10.986;2023-07-31T08:44:21;4.35;;;2.03;;
12878;SDS011;20617;49.476;10.986;2023-07-31T08:46:26;4.68;;;2.33;;
12878;SDS011;20617;49.476;10.986;2023-07-31T08:48:32;4.05;;;1.90;;
12878;SDS011;20617;49.476;10.986;2023-07-31T08:50:37;4.85;;;1.90;;
12878;SDS011;20617;49.476;10.986;2023-07-31T08:52:45;6.13;;;2.42;;
12878;SDS011;20617;49.476;10.986;2023-07-31T08:54:51;4.35;;;2.13;;
12878;SDS011;20617;49.476;10.986;2023-07-31T08:56:55;4.40;;;2.33;;
12878;SDS011;20617;49.476;10.986;2023-07-31T08:59:02;5.80;;;2.55;;
12878;SDS011;20617;49.476;10.986;2023-07-31T09:01:11;4.38;;;2.40;;
12878;SDS011;20617;49.476;10.986;2023-07-31T09:03:17;3.58;;;1.73;;
12878;SDS011;20617;49.476;10.986;2023-07-31T09:05:23;5.80;;;1.95;;
12878;SDS011;20617;49.476;10.986;2023-07-31T09:07:30;4.28;;;2.13;;
12878;SDS011;20617;49.476;10.986;2023-07-31T09:09:38;5.97;;;2.30;;
12878;SDS011;20617;49.476;10.986;2023-07-31T09:11:45;6.13;;;2.40;;
12878;SDS011;20617;49.476;10.986;2023-07-31T09:13:50;5.53;;;2.47;;
12878;SDS011;20617;49.476;10.986;2023-07-31T09:15:56;3.85;;;1.60;;
12878;SDS011;20617;49.476;10.986;2023-07-31T09:18:05;4.28;;;2.40;;
12878;SDS011;20617;49.476;10.986;2023-07-31T09:20:12;5.47;;;2.45;;
12878;SDS011;20617;49.476;10.986;2023-07-31T09:22:18;4.63;;;2.22;;
12878;SDS011;20617;49.476;10.986;2023-07-31T09:24:37;4.97;;;2.15;;
12878;SDS011;20617;49.476;10.986;2023-07-31T09:28:49;6.15;;;2.13;;
12878;SDS011;20617;49.476;10.986;2023-07-31T09:30:54;4.18;;;2.17;;
12878;SDS011;20617;49.476;10.986;2023-07-31T09:37:22;5.53;;;2.25;;
12878;SDS011;20617;49.476;10.986;2023-07-31T09:43:41;5.30;;;2.33;;
12878;SDS011;20617;49.476;10.986;2023-07-31T09:45:57;3.83;;;2.20;;
12878;SDS011;20617;49.476;10.986;2023-07-31T09:50:07;5.15;;;2.30;;
12878;SDS011;20617;49.476;10.986;2023-07-31T09:52:15;4.32;;;2.00;;
12878;SDS011;20617;49.476;10.986;2023-07-31T09:54:20;5.63;;;2.20;;
12878;SDS011;20617;49.476;10.986;2023-07-31T09:58:28;4.13;;;2.58;;
12878;SDS011;20617;49.476;10.986;2023-07-31T10:00:34;5.15;;;2.17;;
12878;SDS011;20617;49.476;10.986;2023-07-31T10:02:40;5.78;;;2.40;;
12878;SDS011;20617;49.476;10.986;2023-07-31T10:04:43;5.63;;;2.58;;
12878;SDS011;20617;49.476;10.986;2023-07-31T10:06:49;2.67;;;1.90;;
12878;SDS011;20617;49.476;10.986;2023-07-31T10:08:59;4.25;;;2.17;;
12878;SDS011;20617;49.476;10.986;2023-07-31T10:11:02;5.20;;;2.13;;
12878;SDS011;20617;49.476;10.986;2023-07-31T10:13:12;3.75;;;2.10;;
12878;SDS011;20617;49.476;10.986;2023-07-31T10:15:23;3.50;;;2.25;;
12878;SDS011;20617;49.476;10.986;2023-07-31T10:17:30;3.88;;;2.17;;
12878;SDS011;20617;49.476;10.986;2023-07-31T10:19:33;7.03;;;2.58;;
12878;SDS011;20617;49.476;10.986;2023-07-31T10:21:40;4.50;;;2.50;;
12878;SDS011;20617;49.476;10.986;2023-07-31T10:23:47;4.15;;;2.03;;
12878;SDS011;20617;49.476;10.986;2023-07-31T10:25:56;4.80;;;2.03;;
12878;SDS011;20617;49.476;10.986;2023-07-31T10:28:03;3.60;;;2.25;;
12878;SDS011;20617;49.476;10.986;2023-07-31T10:30:11;5.85;;;2.47;;
12878;SDS011;20617;49.476;10.986;2023-07-31T10:32:21;3.85;;;2.25;;
12878;SDS011;20617;49.476;10.986;2023-07-31T10:34:29;3.33;;;1.80;;
12878;SDS011;20617;49.476;10.986;2023-07-31T10:36:34;6.57;;;2.70;;
12878;SDS011;20617;49.476;10.986;2023-07-31T10:38:40;2.20;;;1.52;;
12878;SDS011;20617;49.476;10.986;2023-07-31T10:40:45;7.55;;;2.30;;
12878;SDS011;20617;49.476;10.986;2023-07-31T10:42:58;3.17;;;2.00;;
12878;SDS011;20617;49.476;10.986;2023-07-31T10:45:03;4.55;;;2.03;;
12878;SDS011;20617;49.476;10.986;2023-07-31T10:47:08;4.60;;;1.95;;
12878;SDS011;20617;49.476;10.986;2023-07-31T10:49:13;6.53;;;2.35;;
12878;SDS011;20617;49.476;10.986;2023-07-31T10:51:32;4.60;;;2.33;;
12878;SDS011;20617;49.476;10.986;2023-07-31T10:53:38;3.40;;;2.13;;
12878;SDS011;20617;49.476;10.986;2023-07-31T10:55:45;8.10;;;2.20;;
12878;SDS011;20617;49.476;10.986;2023-07-31T10:57:50;4.35;;;2.20;;
12878;SDS011;20617;49.476;10.986;2023-07-31T11:00:09;4.30;;;2.78;;
12878;SDS011;20617;49.476;10.986;2023-07-31T11:02:24;4.25;;;1.75;;
12878;SDS011;20617;49.476;10.986;2023-07-31T11:04:33;4.55;;;2.35;;
12878;SDS011;20617;49.476;10.986;2023-07-31T11:06:38;5.10;;;2.50;;
12878;SDS011;20617;49.476;10.986;2023-07-31T11:10:49;6.20;;;2.67;;
12878;SDS011;20617;49.476;10.986;2023-07-31T11:12:53;4.43;;;2.53;;
12878;SDS011;20617;49.476;10.986;2023-07-31T11:14:58;2.55;;;2.10;;
12878;SDS011;20617;49.476;10.986;2023-07-31T11:17:08;5.47;;;2.30;;
12878;SDS011;20617;49.476;10.986;2023-07-31T11:19:13;3.50;;;2.15;;
12878;SDS011;20617;49.476;10.986;2023-07-31T11:21:26;4.75;;;1.90;;
12878;SDS011;20617;49.476;10.986;2023-07-31T11:23:32;4.30;;;2.05;;
12878;SDS011;20617;49.476;10.986;2023-07-31T11:25:38;7.35;;;2.70;;
12878;SDS011;20617;49.476;10.986;2023-07-31T11:27:44;3.88;;;2.78;;
12878;SDS011;20617;49.476;10.986;2023-07-31T11:29:47;4.18;;;2.22;;
12878;SDS011;20617;49.476;10.986;2023-07-31T11:31:55;5.20;;;2.70;;
12878;SDS011;20617;49.476;10.986;2023-07-31T11:34:07;5.18;;;2.53;;
12878;SDS011;20617;49.476;10.986;2023-07-31T11:36:14;4.43;;;2.65;;
12878;SDS011;20617;49.476;10.986;2023-07-31T11:38:23;4.13;;;2.33;;
12878;SDS011;20617;49.476;10.986;2023-07-31T11:40:30;6.63;;;2.65;;
12878;SDS011;20617;49.476;10.986;2023-07-31T11:42:36;4.40;;;2.38;;
12878;SDS011;20617;49.476;10.986;2023-07-31T11:44:39;3.88;;;2.35;;
12878;SDS011;20617;49.476;10.986;2023-07-31T11:46:49;4.07;;;2.55;;
12878;SDS011;20617;49.476;10.986;2023-07-31T11:48:58;6.57;;;2.67;;
12878;SDS011;20617;49.476;10.986;2023-07-31T11:51:08;5.57;;;3.03;;
12878;SDS011;20617;49.476;10.986;2023-07-31T11:53:15;4.50;;;2.53;;
12878;SDS011;20617;49.476;10.986;2023-07-31T11:55:21;6.50;;;2.63;;
12878;SDS011;20617;49.476;10.986;2023-07-31T11:57:27;4.03;;;2.28;;
12878;SDS011;20617;49.476;10.986;2023-07-31T11:59:33;4.43;;;2.00;;
12878;SDS011;20617;49.476;10.986;2023-07-31T12:01:38;6.20;;;2.53;;
12878;SDS011;20617;49.476;10.986;2023-07-31T12:03:45;6.80;;;2.30;;
12878;SDS011;20617;49.476;10.986;2023-07-31T12:05:55;5.88;;;3.10;;
12878;SDS011;20617;49.476;10.986;2023-07-31T12:08:03;4.32;;;2.38;;
12878;SDS011;20617;49.476;10.986;2023-07-31T12:10:23;3.72;;;2.33;;
12878;SDS011;20617;49.476;10.986;2023-07-31T12:12:30;3.45;;;2.10;;
12878;SDS011;20617;49.476;10.986;2023-07-31T12:14:35;6.35;;;2.30;;
12878;SDS011;20617;49.476;10.986;2023-07-31T12:16:47;7.05;;;2.90;;
12878;SDS011;20617;49.476;10.986;2023-07-31T12:18:53;4.65;;;2.63;;
12878;SDS011;20617;49.476;10.986;2023-07-31T12:23:06;3.17;;;2.35;;
12878;SDS011;20617;49.476;10.986;2023-07-31T12:25:15;6.07;;;2.72;;
12878;SDS011;20617;49.476;10.986;2023-07-31T12:27:20;4.97;;;2.97;;
12878;SDS011;20617;49.476;10.986;2023-07-31T12:29:33;4.88;;;2.90;;
12878;SDS011;20617;49.476;10.986;2023-07-31T12:31:42;7.47;;;3.47;;
12878;SDS011;20617;49.476;10.986;2023-07-31T12:33:49;5.63;;;2.65;;
12878;SDS011;20617;49.476;10.986;2023-07-31T12:35:52;6.18;;;2.55;;
12878;SDS011;20617;49.476;10.986;2023-07-31T12:38:00;5.57;;;3.22;;
12878;SDS011;20617;49.476;10.986;2023-07-31T12:40:10;5.85;;;3.15;;
12878;SDS011;20617;49.476;10.986;2023-07-31T12:42:24;5.75;;;2.83;;
12878;SDS011;20617;49.476;10.986;2023-07-31T12:44:29;4.22;;;2.72;;
12878;SDS011;20617;49.476;10.986;2023-07-31T12:46:36;5.30;;;2.63;;
12878;SDS011;20617;49.476;10.986;2023-07-31T12:48:42;4.30;;;2.83;;
12878;SDS011;20617;49.476;10.986;2023-07-31T12:50:48;5.75;;;2.58;;
12878;SDS011;20617;49.476;10.986;2023-07-31T12:54:58;6.05;;;2.60;;
12878;SDS011;20617;49.476;10.986;2023-07-31T12:57:06;4.13;;;2.88;;
12878;SDS011;20617;49.476;10.986;2023-07-31T12:59:11;6.22;;;1.98;;
12878;SDS011;20617;49.476;10.986;2023-07-31T13:01:18;4.07;;;2.63;;
12878;SDS011;20617;49.476;10.986;2023-07-31T13:03:24;5.60;;;2.40;;
12878;SDS011;20617;49.476;10.986;2023-07-31T13:05:30;4.32;;;2.40;;
12878;SDS011;20617;49.476;10.986;2023-07-31T13:07:35;4.25;;;2.28;;
12878;SDS011;20617;49.476;10.986;2023-07-31T13:09:37;4.13;;;2.53;;
12878;SDS011;20617;49.476;10.986;2023-07-31T13:11:42;3.13;;;2.47;;
12878;SDS011;20617;49.476;10.986;2023-07-31T13:13:50;4.90;;;2.72;;
12878;SDS011;20617;49.476;10.986;2023-07-31T13:15:56;6.55;;;2.95;;
12878;SDS011;20617;49.476;10.986;2023-07-31T13:18:01;4.53;;;2.50;;
12878;SDS011;20617;49.476;10.986;2023-07-31T13:20:07;3.20;;;2.28;;
12878;SDS011;20617;49.476;10.986;2023-07-31T13:22:13;4.75;;;2.50;;
12878;SDS011;20617;49.476;10.986;2023-07-31T13:24:18;4.70;;;2.55;;
12878;SDS011;20617;49.476;10.986;2023-07-31T13:26:24;4.18;;;2.50;;
12878;SDS011;20617;49.476;10.986;2023-07-31T13:28:31;6.13;;;2.80;;
12878;SDS011;20617;49.476;10.986;2023-07-31T13:30:39;6.50;;;3.10;;
12878;SDS011;20617;49.476;10.986;2023-07-31T13:32:44;3.88;;;2.72;;
12878;SDS011;20617;49.476;10.986;2023-07-31T13:36:54;5.80;;;2.97;;
12878;SDS011;20617;49.476;10.986;2023-07-31T13:38:59;5.10;;;2.60;;
12878;SDS011;20617;49.476;10.986;2023-07-31T13:43:12;6.45;;;2.85;;
12878;SDS011;20617;49.476;10.986;2023-07-31T13:45:17;3.88;;;2.70;;
12878;SDS011;20617;49.476;10.986;2023-07-31T13:49:29;5.00;;;2.35;;
12878;SDS011;20617;49.476;10.986;2023-07-31T13:51:32;4.55;;;3.03;;
12878;SDS011;20617;49.476;10.986;2023-07-31T13:55:42;4.85;;;2.47;;
12878;SDS011;20617;49.476;10.986;2023-07-31T13:57:50;5.97;;;2.70;;
12878;SDS011;20617;49.476;10.986;2023-07-31T14:02:05;6.05;;;2.63;;
12878;SDS011;20617;49.476;10.986;2023-07-31T14:04:20;5.07;;;2.70;;